Flight Track Log - Related Links

Times and Time Zones

All times are in EDT time to prevent confusion due to time zone crossing. See the EJA102 flight status page for this flight to view local times or setup timezone preferences in your user account.

Time Position Orientation Groundspeed Altitude Reporting Facility
EDT Latitude Longitude Course Direction KTS MPH feet Rate Location/Type
Mon 05:03:15 PM 40.8333 -74.1000 255° West 193 222 1,300  Level New York TRACON
Mon 05:04:16 PM 40.8167 -74.1833 255° West 252 290 2,200 1,700 Climbing New York TRACON
Mon 05:05:15 PM 40.8167 -74.2833 270° West 250 288 4,700 2,521 Climbing New York TRACON
Mon 05:06:15 PM 40.8167 -74.3667 270° West 262 302 7,200 2,434 Climbing New York TRACON
Mon 05:07:38 PM 40.8006 -74.5075 261° West 292 336 10,500 2,140 Climbing New York Center
Mon 05:08:38 PM 40.7847 -74.6053 258° West 304 350 12,300 1,750 Climbing New York Center
Mon 05:09:38 PM 40.7619 -74.7328 257° West 320 368 14,000 850 Climbing New York Center
Mon 05:10:38 PM 40.7436 -74.8411 257° West 340 391 14,000  Level New York Center
Mon 05:11:38 PM 40.7183 -74.9656 255° West 349 402 14,000 100 Level New York Center
Mon 05:12:38 PM 40.6925 -75.1008 256° West 354 407 14,200 950 Climbing New York Center
Mon 05:13:38 PM 40.6714 -75.2228 257° West 354 407 15,900 900 Climbing New York Center
Mon 05:14:38 PM 40.6478 -75.3525 257° West 354 407 16,000 50 Climbing New York Center
Mon 05:15:38 PM 40.6550 -75.4814 274° West 354 407 16,000  Level New York Center
Mon 05:16:38 PM 40.6692 -75.6003 279° West 360 414 16,000  Level New York Center
Mon 05:17:38 PM 40.6817 -75.7489 276° West 371 427 16,000  Level New York Center
Mon 05:18:38 PM 40.6928 -75.8811 276° West 371 427 16,000  Level New York Center
Mon 05:19:38 PM 40.7042 -76.0022 277° West 371 427 16,000  Level New York Center
Mon 05:20:38 PM 40.7147 -76.1347 276° West 371 427 16,000  Level New York Center
Mon 05:21:38 PM 40.7269 -76.2781 276° West 371 427 16,000  Level New York Center
Mon 05:22:38 PM 40.7378 -76.4022 277° West 364 419 16,000  Level New York Center
Mon 05:23:38 PM 40.7469 -76.5153 276° West 352 405 16,000  Level New York Center
Mon 05:24:38 PM 40.7575 -76.6422 276° West 352 405 16,000  Level New York Center
Mon 05:25:38 PM 40.7672 -76.7772 275° West 352 405 16,000  Level New York Center
Mon 05:26:38 PM 40.7775 -76.9017 276° West 352 405 16,000 -200 Level New York Center
Mon 05:27:38 PM 40.7878 -77.0231 276° West 347 399 15,600 -1,150 Descending New York Center
Mon 05:28:38 PM 40.7964 -77.1389 276° West 342 394 13,700 -1,950 Descending New York Center
Mon 05:29:38 PM 40.8047 -77.2550 275° West 331 381 11,700 -1,850 Descending New York Center
Mon 05:30:38 PM 40.8153 -77.3631 277° West 317 365 10,000 -950 Descending New York Center
Mon 05:31:38 PM 40.8208 -77.4486 275° West 278 320 9,800 -1,050 Descending New York Center
Mon 05:32:38 PM 40.8267 -77.5314 275° West 249 287 7,900 -1,950 Descending New York Center
Mon 05:33:38 PM 40.8389 -77.6067 282° West 235 270 5,900 -1,450 Descending New York Center
Mon 05:34:38 PM 40.8950 -77.6481 331° Northwest 215 247 5,000 -850 Descending New York Center
Mon 05:35:38 PM 40.9386 -77.6881 325° Northwest 204 235 4,200 -400 Descending New York Center
Mon 05:36:38 PM 40.9147 -77.7381 238° Southwest 140 161 4,200 -950 Level New York Center
Mon 05:37:38 PM 40.8914 -77.7794 233° Southwest 133 153 2,300 -1,900 Descending New York Center

Login

Don't have an account? Register now (free) for customized features, flight alerts, and more!